sensor_id;sensor_type;location;lat;lon;timestamp;P1;durP1;ratioP1;P2;durP2;ratioP2
72235;SDS011;60146;52.498;13.462;2023-02-15T00:01:11;38.63;;;11.87;;
72235;SDS011;60146;52.498;13.462;2023-02-15T00:03:37;34.80;;;11.60;;
72235;SDS011;60146;52.498;13.462;2023-02-15T00:06:02;37.57;;;12.30;;
72235;SDS011;60146;52.498;13.462;2023-02-15T00:08:28;37.57;;;11.97;;
72235;SDS011;60146;52.498;13.462;2023-02-15T00:10:53;38.43;;;12.83;;
72235;SDS011;60146;52.498;13.462;2023-02-15T00:13:27;40.83;;;11.23;;
72235;SDS011;60146;52.498;13.462;2023-02-15T00:15:53;33.43;;;11.30;;
72235;SDS011;60146;52.498;13.462;2023-02-15T00:18:18;40.07;;;12.63;;
72235;SDS011;60146;52.498;13.462;2023-02-15T00:20:43;35.90;;;11.90;;
72235;SDS011;60146;52.498;13.462;2023-02-15T00:23:08;40.70;;;12.90;;
72235;SDS011;60146;52.498;13.462;2023-02-15T00:25:34;40.60;;;12.53;;
72235;SDS011;60146;52.498;13.462;2023-02-15T00:27:59;38.73;;;12.93;;
72235;SDS011;60146;52.498;13.462;2023-02-15T00:30:24;39.83;;;12.40;;
72235;SDS011;60146;52.498;13.462;2023-02-15T00:32:50;38.50;;;12.37;;
72235;SDS011;60146;52.498;13.462;2023-02-15T00:35:15;37.43;;;12.10;;
72235;SDS011;60146;52.498;13.462;2023-02-15T00:37:40;41.87;;;12.30;;
72235;SDS011;60146;52.498;13.462;2023-02-15T00:40:06;39.27;;;12.63;;
72235;SDS011;60146;52.498;13.462;2023-02-15T00:42:31;41.47;;;12.73;;
72235;SDS011;60146;52.498;13.462;2023-02-15T00:44:56;38.03;;;12.47;;
72235;SDS011;60146;52.498;13.462;2023-02-15T00:47:21;38.50;;;11.83;;
72235;SDS011;60146;52.498;13.462;2023-02-15T00:49:47;41.43;;;12.20;;
72235;SDS011;60146;52.498;13.462;2023-02-15T00:52:12;42.97;;;14.57;;
72235;SDS011;60146;52.498;13.462;2023-02-15T00:54:37;39.77;;;12.73;;
72235;SDS011;60146;52.498;13.462;2023-02-15T00:57:03;41.70;;;12.57;;
72235;SDS011;60146;52.498;13.462;2023-02-15T00:59:28;41.33;;;13.40;;
72235;SDS011;60146;52.498;13.462;2023-02-15T01:01:55;41.30;;;13.40;;
72235;SDS011;60146;52.498;13.462;2023-02-15T01:04:20;42.00;;;12.43;;
72235;SDS011;60146;52.498;13.462;2023-02-15T01:06:45;44.03;;;12.80;;
72235;SDS011;60146;52.498;13.462;2023-02-15T01:09:10;44.13;;;12.93;;
72235;SDS011;60146;52.498;13.462;2023-02-15T01:11:37;41.77;;;13.27;;
72235;SDS011;60146;52.498;13.462;2023-02-15T01:14:02;42.13;;;13.03;;
72235;SDS011;60146;52.498;13.462;2023-02-15T01:16:28;39.83;;;13.27;;
72235;SDS011;60146;52.498;13.462;2023-02-15T01:18:53;42.37;;;13.80;;
72235;SDS011;60146;52.498;13.462;2023-02-15T01:21:20;41.03;;;12.77;;
72235;SDS011;60146;52.498;13.462;2023-02-15T01:23:46;47.93;;;13.67;;
72235;SDS011;60146;52.498;13.462;2023-02-15T01:26:12;39.90;;;13.90;;
72235;SDS011;60146;52.498;13.462;2023-02-15T01:28:37;45.70;;;13.80;;
72235;SDS011;60146;52.498;13.462;2023-02-15T01:31:10;54.93;;;15.20;;
72235;SDS011;60146;52.498;13.462;2023-02-15T01:33:35;48.23;;;14.97;;
72235;SDS011;60146;52.498;13.462;2023-02-15T01:36:01;44.17;;;12.60;;
72235;SDS011;60146;52.498;13.462;2023-02-15T01:38:26;43.47;;;14.23;;
72235;SDS011;60146;52.498;13.462;2023-02-15T01:40:52;44.53;;;13.20;;
72235;SDS011;60146;52.498;13.462;2023-02-15T01:43:17;44.60;;;13.27;;
72235;SDS011;60146;52.498;13.462;2023-02-15T01:45:43;45.30;;;13.10;;
72235;SDS011;60146;52.498;13.462;2023-02-15T01:48:20;45.37;;;13.90;;
72235;SDS011;60146;52.498;13.462;2023-02-15T01:50:48;43.57;;;12.73;;
72235;SDS011;60146;52.498;13.462;2023-02-15T01:53:16;42.83;;;13.63;;
72235;SDS011;60146;52.498;13.462;2023-02-15T01:55:47;48.43;;;13.90;;
72235;SDS011;60146;52.498;13.462;2023-02-15T01:58:15;40.53;;;12.70;;
72235;SDS011;60146;52.498;13.462;2023-02-15T02:00:40;48.07;;;13.37;;
72235;SDS011;60146;52.498;13.462;2023-02-15T02:03:09;40.03;;;12.97;;
72235;SDS011;60146;52.498;13.462;2023-02-15T02:05:34;41.17;;;13.27;;
72235;SDS011;60146;52.498;13.462;2023-02-15T02:08:00;43.03;;;12.97;;
72235;SDS011;60146;52.498;13.462;2023-02-15T02:10:27;43.50;;;12.93;;
72235;SDS011;60146;52.498;13.462;2023-02-15T02:12:53;45.40;;;13.57;;
72235;SDS011;60146;52.498;13.462;2023-02-15T02:15:20;35.97;;;11.97;;
72235;SDS011;60146;52.498;13.462;2023-02-15T02:20:26;48.13;;;13.03;;
72235;SDS011;60146;52.498;13.462;2023-02-15T02:25:32;51.20;;;15.43;;
72235;SDS011;60146;52.498;13.462;2023-02-15T02:28:46;61.73;;;17.17;;
72235;SDS011;60146;52.498;13.462;2023-02-15T02:30:59;76.67;;;20.47;;
72235;SDS011;60146;52.498;13.462;2023-02-15T02:33:38;65.73;;;17.73;;
72235;SDS011;60146;52.498;13.462;2023-02-15T02:46:42;69.97;;;19.97;;
72235;SDS011;60146;52.498;13.462;2023-02-15T02:49:09;102.97;;;29.38;;
72235;SDS011;60146;52.498;13.462;2023-02-15T02:51:34;76.07;;;22.20;;
72235;SDS011;60146;52.498;13.462;2023-02-15T02:54:00;76.10;;;21.00;;
72235;SDS011;60146;52.498;13.462;2023-02-15T02:58:54;82.30;;;21.60;;
72235;SDS011;60146;52.498;13.462;2023-02-15T03:01:24;79.27;;;20.83;;
72235;SDS011;60146;52.498;13.462;2023-02-15T03:03:51;80.77;;;23.50;;
72235;SDS011;60146;52.498;13.462;2023-02-15T03:06:19;74.70;;;20.77;;
72235;SDS011;60146;52.498;13.462;2023-02-15T03:08:47;64.13;;;18.00;;
72235;SDS011;60146;52.498;13.462;2023-02-15T03:11:13;67.13;;;17.67;;
72235;SDS011;60146;52.498;13.462;2023-02-15T03:13:38;70.93;;;19.30;;
72235;SDS011;60146;52.498;13.462;2023-02-15T03:16:04;58.20;;;16.67;;
72235;SDS011;60146;52.498;13.462;2023-02-15T03:18:50;58.63;;;15.63;;
72235;SDS011;60146;52.498;13.462;2023-02-15T03:21:19;62.03;;;15.70;;
72235;SDS011;60146;52.498;13.462;2023-02-15T03:23:48;64.17;;;16.73;;
72235;SDS011;60146;52.498;13.462;2023-02-15T03:26:13;61.73;;;16.40;;
72235;SDS011;60146;52.498;13.462;2023-02-15T03:28:42;61.17;;;17.20;;
72235;SDS011;60146;52.498;13.462;2023-02-15T03:31:09;57.88;;;16.58;;
72235;SDS011;60146;52.498;13.462;2023-02-15T03:33:37;62.13;;;16.37;;
72235;SDS011;60146;52.498;13.462;2023-02-15T03:38:36;65.20;;;18.33;;
72235;SDS011;60146;52.498;13.462;2023-02-15T03:41:04;63.43;;;16.27;;
72235;SDS011;60146;52.498;13.462;2023-02-15T03:43:53;63.30;;;17.20;;
72235;SDS011;60146;52.498;13.462;2023-02-15T03:46:28;66.40;;;16.40;;
72235;SDS011;60146;52.498;13.462;2023-02-15T03:48:59;65.03;;;17.53;;
72235;SDS011;60146;52.498;13.462;2023-02-15T03:51:28;66.73;;;16.47;;
72235;SDS011;60146;52.498;13.462;2023-02-15T03:54:27;59.27;;;16.23;;
72235;SDS011;60146;52.498;13.462;2023-02-15T03:57:17;62.53;;;17.17;;
72235;SDS011;60146;52.498;13.462;2023-02-15T04:00:03;63.33;;;16.70;;
72235;SDS011;60146;52.498;13.462;2023-02-15T04:03:01;66.00;;;18.57;;
72235;SDS011;60146;52.498;13.462;2023-02-15T04:05:29;69.60;;;19.77;;
72235;SDS011;60146;52.498;13.462;2023-02-15T04:07:54;68.60;;;18.60;;
72235;SDS011;60146;52.498;13.462;2023-02-15T04:10:20;67.47;;;18.37;;
72235;SDS011;60146;52.498;13.462;2023-02-15T04:13:03;64.53;;;16.00;;
72235;SDS011;60146;52.498;13.462;2023-02-15T04:15:28;60.37;;;17.30;;
72235;SDS011;60146;52.498;13.462;2023-02-15T04:18:12;63.20;;;16.37;;
72235;SDS011;60146;52.498;13.462;2023-02-15T04:20:37;64.93;;;17.10;;
72235;SDS011;60146;52.498;13.462;2023-02-15T04:23:21;64.93;;;16.37;;
72235;SDS011;60146;52.498;13.462;2023-02-15T04:26:05;62.33;;;16.77;;
72235;SDS011;60146;52.498;13.462;2023-02-15T04:28:30;57.43;;;15.90;;
72235;SDS011;60146;52.498;13.462;2023-02-15T04:30:56;54.97;;;16.00;;
72235;SDS011;60146;52.498;13.462;2023-02-15T04:33:21;63.53;;;16.77;;
72235;SDS011;60146;52.498;13.462;2023-02-15T04:35:46;54.87;;;15.33;;
72235;SDS011;60146;52.498;13.462;2023-02-15T04:38:11;53.67;;;14.40;;
72235;SDS011;60146;52.498;13.462;2023-02-15T04:40:36;59.63;;;15.97;;
72235;SDS011;60146;52.498;13.462;2023-02-15T04:43:02;59.20;;;15.83;;
72235;SDS011;60146;52.498;13.462;2023-02-15T04:45:27;57.07;;;15.37;;
72235;SDS011;60146;52.498;13.462;2023-02-15T04:47:52;60.83;;;15.73;;
72235;SDS011;60146;52.498;13.462;2023-02-15T04:50:17;58.57;;;16.27;;
72235;SDS011;60146;52.498;13.462;2023-02-15T04:52:43;57.87;;;15.03;;
72235;SDS011;60146;52.498;13.462;2023-02-15T04:55:08;59.70;;;16.47;;
72235;SDS011;60146;52.498;13.462;2023-02-15T04:57:33;57.60;;;16.27;;
72235;SDS011;60146;52.498;13.462;2023-02-15T05:00:05;60.10;;;15.30;;
72235;SDS011;60146;52.498;13.462;2023-02-15T05:02:30;58.77;;;14.77;;
72235;SDS011;60146;52.498;13.462;2023-02-15T05:04:56;63.27;;;16.20;;
72235;SDS011;60146;52.498;13.462;2023-02-15T05:07:21;62.87;;;15.97;;
72235;SDS011;60146;52.498;13.462;2023-02-15T05:09:46;57.17;;;15.53;;
72235;SDS011;60146;52.498;13.462;2023-02-15T05:12:11;54.37;;;15.23;;
72235;SDS011;60146;52.498;13.462;2023-02-15T05:14:36;58.13;;;14.90;;
72235;SDS011;60146;52.498;13.462;2023-02-15T05:17:02;66.50;;;15.63;;
72235;SDS011;60146;52.498;13.462;2023-02-15T05:19:28;64.30;;;17.53;;
72235;SDS011;60146;52.498;13.462;2023-02-15T05:21:53;67.03;;;18.57;;
72235;SDS011;60146;52.498;13.462;2023-02-15T05:24:18;73.17;;;22.73;;
72235;SDS011;60146;52.498;13.462;2023-02-15T05:27:02;83.33;;;24.27;;
72235;SDS011;60146;52.498;13.462;2023-02-15T05:29:46;96.47;;;31.17;;
72235;SDS011;60146;52.498;13.462;2023-02-15T05:32:12;76.90;;;20.40;;
72235;SDS011;60146;52.498;13.462;2023-02-15T05:34:38;70.73;;;19.83;;
72235;SDS011;60146;52.498;13.462;2023-02-15T05:37:03;75.47;;;20.63;;
72235;SDS011;60146;52.498;13.462;2023-02-15T05:39:28;72.07;;;22.43;;
72235;SDS011;60146;52.498;13.462;2023-02-15T05:41:53;90.27;;;27.97;;
72235;SDS011;60146;52.498;13.462;2023-02-15T05:44:19;71.17;;;20.20;;
72235;SDS011;60146;52.498;13.462;2023-02-15T05:46:44;61.93;;;16.43;;
72235;SDS011;60146;52.498;13.462;2023-02-15T05:49:09;55.50;;;15.30;;
72235;SDS011;60146;52.498;13.462;2023-02-15T05:51:34;60.13;;;16.27;;
72235;SDS011;60146;52.498;13.462;2023-02-15T05:53:59;58.20;;;15.10;;
72235;SDS011;60146;52.498;13.462;2023-02-15T05:56:25;63.10;;;16.17;;
72235;SDS011;60146;52.498;13.462;2023-02-15T05:58:52;48.70;;;14.33;;
72235;SDS011;60146;52.498;13.462;2023-02-15T06:01:18;61.80;;;16.53;;
72235;SDS011;60146;52.498;13.462;2023-02-15T06:03:43;66.77;;;15.63;;
72235;SDS011;60146;52.498;13.462;2023-02-15T06:06:09;62.97;;;15.87;;
72235;SDS011;60146;52.498;13.462;2023-02-15T06:08:35;71.27;;;16.83;;
72235;SDS011;60146;52.498;13.462;2023-02-15T06:11:00;70.30;;;15.67;;
72235;SDS011;60146;52.498;13.462;2023-02-15T06:13:26;71.13;;;15.07;;
72235;SDS011;60146;52.498;13.462;2023-02-15T06:15:51;66.10;;;15.97;;
72235;SDS011;60146;52.498;13.462;2023-02-15T06:18:16;87.93;;;16.50;;
72235;SDS011;60146;52.498;13.462;2023-02-15T06:20:41;74.47;;;17.77;;
72235;SDS011;60146;52.498;13.462;2023-02-15T06:23:07;64.43;;;17.07;;
72235;SDS011;60146;52.498;13.462;2023-02-15T06:25:32;66.10;;;15.77;;
72235;SDS011;60146;52.498;13.462;2023-02-15T06:27:57;69.00;;;15.27;;
72235;SDS011;60146;52.498;13.462;2023-02-15T06:30:22;71.10;;;16.73;;
72235;SDS011;60146;52.498;13.462;2023-02-15T06:32:47;91.00;;;20.03;;
72235;SDS011;60146;52.498;13.462;2023-02-15T06:35:13;78.33;;;19.60;;
72235;SDS011;60146;52.498;13.462;2023-02-15T06:37:38;68.93;;;16.33;;
72235;SDS011;60146;52.498;13.462;2023-02-15T06:40:03;66.67;;;16.07;;
72235;SDS011;60146;52.498;13.462;2023-02-15T06:42:29;74.10;;;18.17;;
72235;SDS011;60146;52.498;13.462;2023-02-15T06:44:54;73.83;;;16.87;;
72235;SDS011;60146;52.498;13.462;2023-02-15T06:47:19;80.47;;;16.13;;
72235;SDS011;60146;52.498;13.462;2023-02-15T06:49:44;96.73;;;16.47;;
72235;SDS011;60146;52.498;13.462;2023-02-15T06:52:10;86.17;;;18.33;;
72235;SDS011;60146;52.498;13.462;2023-02-15T06:54:35;75.47;;;18.03;;
72235;SDS011;60146;52.498;13.462;2023-02-15T06:57:00;81.53;;;18.27;;
72235;SDS011;60146;52.498;13.462;2023-02-15T06:59:25;89.13;;;16.70;;
72235;SDS011;60146;52.498;13.462;2023-02-15T07:01:50;78.70;;;17.37;;
72235;SDS011;60146;52.498;13.462;2023-02-15T07:04:16;75.97;;;16.13;;
72235;SDS011;60146;52.498;13.462;2023-02-15T07:06:41;69.87;;;15.97;;
72235;SDS011;60146;52.498;13.462;2023-02-15T07:09:06;76.73;;;17.53;;
72235;SDS011;60146;52.498;13.462;2023-02-15T07:11:32;65.77;;;15.13;;
72235;SDS011;60146;52.498;13.462;2023-02-15T07:14:16;65.57;;;14.23;;
72235;SDS011;60146;52.498;13.462;2023-02-15T07:16:41;85.50;;;15.17;;
72235;SDS011;60146;52.498;13.462;2023-02-15T07:19:06;64.07;;;15.33;;
72235;SDS011;60146;52.498;13.462;2023-02-15T07:21:32;91.67;;;17.30;;
72235;SDS011;60146;52.498;13.462;2023-02-15T07:23:57;72.80;;;15.83;;
72235;SDS011;60146;52.498;13.462;2023-02-15T07:26:23;75.50;;;16.33;;
72235;SDS011;60146;52.498;13.462;2023-02-15T07:28:48;59.43;;;14.80;;
72235;SDS011;60146;52.498;13.462;2023-02-15T07:31:13;72.47;;;14.30;;
72235;SDS011;60146;52.498;13.462;2023-02-15T07:33:39;60.80;;;14.73;;
72235;SDS011;60146;52.498;13.462;2023-02-15T07:36:04;64.10;;;15.13;;
72235;SDS011;60146;52.498;13.462;2023-02-15T07:38:34;58.57;;;15.37;;
72235;SDS011;60146;52.498;13.462;2023-02-15T07:41:00;57.55;;;15.13;;
72235;SDS011;60146;52.498;13.462;2023-02-15T07:43:26;62.90;;;16.27;;
72235;SDS011;60146;52.498;13.462;2023-02-15T07:45:52;57.47;;;14.70;;
72235;SDS011;60146;52.498;13.462;2023-02-15T07:48:17;64.20;;;16.03;;
72235;SDS011;60146;52.498;13.462;2023-02-15T07:50:42;63.97;;;14.20;;
72235;SDS011;60146;52.498;13.462;2023-02-15T07:53:07;69.30;;;16.10;;
72235;SDS011;60146;52.498;13.462;2023-02-15T07:55:33;70.03;;;15.30;;
72235;SDS011;60146;52.498;13.462;2023-02-15T07:57:58;76.77;;;16.27;;
72235;SDS011;60146;52.498;13.462;2023-02-15T08:00:23;65.33;;;15.03;;
72235;SDS011;60146;52.498;13.462;2023-02-15T08:02:53;71.40;;;14.53;;
72235;SDS011;60146;52.498;13.462;2023-02-15T08:05:37;61.53;;;15.30;;
72235;SDS011;60146;52.498;13.462;2023-02-15T08:08:02;75.67;;;16.17;;
72235;SDS011;60146;52.498;13.462;2023-02-15T08:10:27;58.57;;;15.13;;
72235;SDS011;60146;52.498;13.462;2023-02-15T08:13:12;54.57;;;14.50;;
72235;SDS011;60146;52.498;13.462;2023-02-15T08:15:38;57.50;;;15.23;;
72235;SDS011;60146;52.498;13.462;2023-02-15T08:18:03;79.30;;;16.50;;
72235;SDS011;60146;52.498;13.462;2023-02-15T08:20:28;59.50;;;15.63;;
72235;SDS011;60146;52.498;13.462;2023-02-15T08:22:54;58.23;;;15.37;;
72235;SDS011;60146;52.498;13.462;2023-02-15T08:25:20;65.80;;;15.20;;
72235;SDS011;60146;52.498;13.462;2023-02-15T08:27:46;60.90;;;15.30;;
72235;SDS011;60146;52.498;13.462;2023-02-15T08:30:11;68.60;;;15.10;;
72235;SDS011;60146;52.498;13.462;2023-02-15T08:32:37;60.83;;;15.77;;
72235;SDS011;60146;52.498;13.462;2023-02-15T08:35:02;66.83;;;16.17;;
72235;SDS011;60146;52.498;13.462;2023-02-15T08:37:33;59.40;;;15.40;;
72235;SDS011;60146;52.498;13.462;2023-02-15T08:39:58;56.67;;;15.77;;
72235;SDS011;60146;52.498;13.462;2023-02-15T08:42:24;68.93;;;16.53;;
72235;SDS011;60146;52.498;13.462;2023-02-15T08:44:49;53.07;;;15.17;;
72235;SDS011;60146;52.498;13.462;2023-02-15T08:47:16;57.17;;;14.20;;
72235;SDS011;60146;52.498;13.462;2023-02-15T08:49:41;54.07;;;14.50;;
72235;SDS011;60146;52.498;13.462;2023-02-15T08:52:07;66.70;;;14.80;;
72235;SDS011;60146;52.498;13.462;2023-02-15T08:54:32;43.37;;;12.57;;
72235;SDS011;60146;52.498;13.462;2023-02-15T08:56:57;55.03;;;14.57;;
72235;SDS011;60146;52.498;13.462;2023-02-15T08:59:23;49.47;;;14.27;;
72235;SDS011;60146;52.498;13.462;2023-02-15T09:01:51;49.37;;;14.83;;
72235;SDS011;60146;52.498;13.462;2023-02-15T09:04:17;61.17;;;15.20;;
72235;SDS011;60146;52.498;13.462;2023-02-15T09:06:42;48.33;;;13.90;;
72235;SDS011;60146;52.498;13.462;2023-02-15T09:09:08;45.13;;;13.00;;
72235;SDS011;60146;52.498;13.462;2023-02-15T09:11:35;50.90;;;13.30;;
72235;SDS011;60146;52.498;13.462;2023-02-15T09:14:03;64.10;;;15.47;;
72235;SDS011;60146;52.498;13.462;2023-02-15T09:16:30;49.73;;;13.57;;
72235;SDS011;60146;52.498;13.462;2023-02-15T09:18:56;41.70;;;13.43;;
72235;SDS011;60146;52.498;13.462;2023-02-15T09:21:29;54.58;;;13.93;;
72235;SDS011;60146;52.498;13.462;2023-02-15T09:26:52;48.57;;;13.50;;
72235;SDS011;60146;52.498;13.462;2023-02-15T09:29:20;41.53;;;13.10;;
72235;SDS011;60146;52.498;13.462;2023-02-15T09:34:50;46.73;;;13.70;;
72235;SDS011;60146;52.498;13.462;2023-02-15T09:37:18;48.37;;;14.37;;
72235;SDS011;60146;52.498;13.462;2023-02-15T09:39:43;49.57;;;13.40;;
72235;SDS011;60146;52.498;13.462;2023-02-15T09:42:28;41.27;;;13.07;;
72235;SDS011;60146;52.498;13.462;2023-02-15T09:45:04;39.23;;;12.90;;
72235;SDS011;60146;52.498;13.462;2023-02-15T09:52:53;41.97;;;12.90;;
72235;SDS011;60146;52.498;13.462;2023-02-15T09:58:01;44.40;;;14.00;;
72235;SDS011;60146;52.498;13.462;2023-02-15T10:00:47;42.27;;;13.20;;
72235;SDS011;60146;52.498;13.462;2023-02-15T10:03:33;43.33;;;12.50;;
72235;SDS011;60146;52.498;13.462;2023-02-15T10:06:15;45.63;;;12.50;;
72235;SDS011;60146;52.498;13.462;2023-02-15T10:31:37;35.90;;;12.37;;
72235;SDS011;60146;52.498;13.462;2023-02-15T10:34:17;38.58;;;12.43;;
72235;SDS011;60146;52.498;13.462;2023-02-15T10:52:54;36.10;;;12.73;;
72235;SDS011;60146;52.498;13.462;2023-02-15T10:55:37;37.03;;;12.13;;
72235;SDS011;60146;52.498;13.462;2023-02-15T11:08:22;36.07;;;12.83;;
72235;SDS011;60146;52.498;13.462;2023-02-15T11:10:51;35.77;;;13.27;;
72235;SDS011;60146;52.498;13.462;2023-02-15T11:13:18;33.83;;;12.80;;
72235;SDS011;60146;52.498;13.462;2023-02-15T11:18:16;35.70;;;12.65;;
72235;SDS011;60146;52.498;13.462;2023-02-15T11:23:18;34.50;;;12.48;;
72235;SDS011;60146;52.498;13.462;2023-02-15T11:25:46;31.40;;;12.80;;
72235;SDS011;60146;52.498;13.462;2023-02-15T11:28:17;30.73;;;12.98;;
72235;SDS011;60146;52.498;13.462;2023-02-15T11:30:43;27.40;;;12.38;;
72235;SDS011;60146;52.498;13.462;2023-02-15T11:33:15;28.58;;;13.05;;
72235;SDS011;60146;52.498;13.462;2023-02-15T11:35:47;30.35;;;13.07;;
72235;SDS011;60146;52.498;13.462;2023-02-15T11:38:21;55.50;;;14.27;;
72235;SDS011;60146;52.498;13.462;2023-02-15T11:40:48;29.42;;;12.73;;
72235;SDS011;60146;52.498;13.462;2023-02-15T11:43:23;34.50;;;12.07;;
72235;SDS011;60146;52.498;13.462;2023-02-15T11:45:50;26.25;;;11.95;;
72235;SDS011;60146;52.498;13.462;2023-02-15T11:48:15;38.40;;;13.27;;
72235;SDS011;60146;52.498;13.462;2023-02-15T11:50:43;28.98;;;12.00;;
72235;SDS011;60146;52.498;13.462;2023-02-15T11:53:11;44.03;;;13.23;;
72235;SDS011;60146;52.498;13.462;2023-02-15T11:55:37;25.95;;;11.95;;
72235;SDS011;60146;52.498;13.462;2023-02-15T12:00:47;38.13;;;13.07;;
72235;SDS011;60146;52.498;13.462;2023-02-15T12:03:17;23.23;;;11.68;;
72235;SDS011;60146;52.498;13.462;2023-02-15T12:05:44;26.15;;;12.00;;
72235;SDS011;60146;52.498;13.462;2023-02-15T12:08:15;40.20;;;13.35;;
72235;SDS011;60146;52.498;13.462;2023-02-15T12:10:52;25.60;;;12.05;;
72235;SDS011;60146;52.498;13.462;2023-02-15T12:13:20;27.40;;;11.80;;
72235;SDS011;60146;52.498;13.462;2023-02-15T12:15:47;25.27;;;11.77;;
72235;SDS011;60146;52.498;13.462;2023-02-15T12:18:21;18.70;;;10.40;;
72235;SDS011;60146;52.498;13.462;2023-02-15T12:20:48;21.58;;;10.98;;
72235;SDS011;60146;52.498;13.462;2023-02-15T12:23:14;36.33;;;12.48;;
72235;SDS011;60146;52.498;13.462;2023-02-15T12:30:45;26.50;;;11.90;;
72235;SDS011;60146;52.498;13.462;2023-02-15T12:35:39;22.30;;;11.95;;
72235;SDS011;60146;52.498;13.462;2023-02-15T12:38:09;25.15;;;11.50;;
72235;SDS011;60146;52.498;13.462;2023-02-15T12:40:56;22.98;;;11.18;;
72235;SDS011;60146;52.498;13.462;2023-02-15T12:43:30;22.25;;;11.18;;
72235;SDS011;60146;52.498;13.462;2023-02-15T12:46:12;22.73;;;10.98;;
72235;SDS011;60146;52.498;13.462;2023-02-15T12:48:40;21.15;;;11.18;;
72235;SDS011;60146;52.498;13.462;2023-02-15T12:51:07;21.20;;;11.57;;
72235;SDS011;60146;52.498;13.462;2023-02-15T12:53:33;22.45;;;11.68;;
72235;SDS011;60146;52.498;13.462;2023-02-15T12:56:05;25.42;;;11.57;;
72235;SDS011;60146;52.498;13.462;2023-02-15T12:58:38;23.80;;;11.00;;
72235;SDS011;60146;52.498;13.462;2023-02-15T13:01:15;29.50;;;11.88;;
72235;SDS011;60146;52.498;13.462;2023-02-15T13:06:18;23.17;;;10.98;;
72235;SDS011;60146;52.498;13.462;2023-02-15T13:08:50;22.15;;;10.98;;
72235;SDS011;60146;52.498;13.462;2023-02-15T13:11:21;24.17;;;12.20;;
72235;SDS011;60146;52.498;13.462;2023-02-15T13:13:54;21.95;;;11.95;;
72235;SDS011;60146;52.498;13.462;2023-02-15T13:16:24;26.30;;;11.40;;
72235;SDS011;60146;52.498;13.462;2023-02-15T13:18:50;30.38;;;11.90;;
72235;SDS011;60146;52.498;13.462;2023-02-15T13:23:47;26.05;;;10.68;;
72235;SDS011;60146;52.498;13.462;2023-02-15T13:26:23;16.42;;;9.13;;
72235;SDS011;60146;52.498;13.462;2023-02-15T13:28:56;24.13;;;11.07;;
72235;SDS011;60146;52.498;13.462;2023-02-15T13:31:24;20.67;;;11.23;;
72235;SDS011;60146;52.498;13.462;2023-02-15T13:33:53;21.10;;;10.98;;
72235;SDS011;60146;52.498;13.462;2023-02-15T13:36:29;23.88;;;10.85;;
72235;SDS011;60146;52.498;13.462;2023-02-15T13:39:00;30.58;;;12.70;;
72235;SDS011;60146;52.498;13.462;2023-02-15T13:41:31;24.37;;;11.70;;
72235;SDS011;60146;52.498;13.462;2023-02-15T13:43:59;26.08;;;10.73;;
72235;SDS011;60146;52.498;13.462;2023-02-15T13:49:06;22.77;;;10.90;;
72235;SDS011;60146;52.498;13.462;2023-02-15T13:51:38;22.42;;;11.05;;
72235;SDS011;60146;52.498;13.462;2023-02-15T13:57:04;21.23;;;10.25;;
72235;SDS011;60146;52.498;13.462;2023-02-15T14:07:40;24.35;;;10.38;;
72235;SDS011;60146;52.498;13.462;2023-02-15T14:26:21;23.60;;;10.53;;
72235;SDS011;60146;52.498;13.462;2023-02-15T14:31:14;24.80;;;10.13;;
72235;SDS011;60146;52.498;13.462;2023-02-15T14:33:40;20.77;;;9.60;;
72235;SDS011;60146;52.498;13.462;2023-02-15T14:36:09;23.30;;;9.70;;
72235;SDS011;60146;52.498;13.462;2023-02-15T14:38:48;24.33;;;9.93;;
72235;SDS011;60146;52.498;13.462;2023-02-15T14:46:36;27.67;;;9.97;;
72235;SDS011;60146;52.498;13.462;2023-02-15T14:56:43;22.87;;;9.40;;
72235;SDS011;60146;52.498;13.462;2023-02-15T15:01:37;29.90;;;9.90;;
72235;SDS011;60146;52.498;13.462;2023-02-15T15:04:08;25.47;;;8.77;;
72235;SDS011;60146;52.498;13.462;2023-02-15T15:06:35;33.13;;;10.50;;
72235;SDS011;60146;52.498;13.462;2023-02-15T15:09:09;33.83;;;12.60;;
72235;SDS011;60146;52.498;13.462;2023-02-15T15:11:37;34.03;;;10.87;;
72235;SDS011;60146;52.498;13.462;2023-02-15T15:14:02;23.03;;;9.23;;
72235;SDS011;60146;52.498;13.462;2023-02-15T15:16:29;28.20;;;9.83;;
72235;SDS011;60146;52.498;13.462;2023-02-15T15:18:55;30.73;;;10.17;;
72235;SDS011;60146;52.498;13.462;2023-02-15T15:24:05;31.60;;;10.87;;
72235;SDS011;60146;52.498;13.462;2023-02-15T15:26:31;30.90;;;10.93;;
72235;SDS011;60146;52.498;13.462;2023-02-15T15:29:02;31.93;;;9.97;;
72235;SDS011;60146;52.498;13.462;2023-02-15T15:34:33;26.50;;;10.60;;
72235;SDS011;60146;52.498;13.462;2023-02-15T15:42:13;24.20;;;8.73;;
72235;SDS011;60146;52.498;13.462;2023-02-15T15:49:58;22.37;;;9.10;;
72235;SDS011;60146;52.498;13.462;2023-02-15T15:52:23;27.90;;;10.37;;
72235;SDS011;60146;52.498;13.462;2023-02-15T15:54:52;31.97;;;10.43;;
72235;SDS011;60146;52.498;13.462;2023-02-15T15:57:23;34.07;;;10.60;;
72235;SDS011;60146;52.498;13.462;2023-02-15T15:59:50;30.27;;;10.33;;
72235;SDS011;60146;52.498;13.462;2023-02-15T16:02:16;24.73;;;9.70;;
72235;SDS011;60146;52.498;13.462;2023-02-15T16:04:42;30.07;;;9.87;;
72235;SDS011;60146;52.498;13.462;2023-02-15T16:07:18;28.30;;;10.07;;
72235;SDS011;60146;52.498;13.462;2023-02-15T16:09:55;29.87;;;11.47;;
72235;SDS011;60146;52.498;13.462;2023-02-15T16:12:21;34.87;;;11.03;;
72235;SDS011;60146;52.498;13.462;2023-02-15T16:14:47;30.63;;;10.03;;
72235;SDS011;60146;52.498;13.462;2023-02-15T16:17:20;23.87;;;9.10;;
72235;SDS011;60146;52.498;13.462;2023-02-15T16:19:46;20.83;;;8.43;;
72235;SDS011;60146;52.498;13.462;2023-02-15T16:22:13;26.63;;;9.77;;
72235;SDS011;60146;52.498;13.462;2023-02-15T16:29:53;26.50;;;9.70;;
72235;SDS011;60146;52.498;13.462;2023-02-15T16:32:20;30.33;;;9.43;;
72235;SDS011;60146;52.498;13.462;2023-02-15T16:34:53;22.63;;;9.47;;
72235;SDS011;60146;52.498;13.462;2023-02-15T16:37:19;20.77;;;8.43;;
72235;SDS011;60146;52.498;13.462;2023-02-15T16:39:48;24.55;;;8.88;;
72235;SDS011;60146;52.498;13.462;2023-02-15T16:42:14;25.70;;;8.63;;
72235;SDS011;60146;52.498;13.462;2023-02-15T16:44:40;22.03;;;8.50;;
72235;SDS011;60146;52.498;13.462;2023-02-15T16:47:07;26.53;;;10.23;;
72235;SDS011;60146;52.498;13.462;2023-02-15T16:49:37;26.70;;;9.80;;
72235;SDS011;60146;52.498;13.462;2023-02-15T16:52:05;25.40;;;9.77;;
72235;SDS011;60146;52.498;13.462;2023-02-15T16:54:31;23.07;;;8.63;;
72235;SDS011;60146;52.498;13.462;2023-02-15T16:56:56;24.93;;;9.90;;
72235;SDS011;60146;52.498;13.462;2023-02-15T16:59:38;23.77;;;9.20;;
72235;SDS011;60146;52.498;13.462;2023-02-15T17:02:15;28.13;;;9.97;;
72235;SDS011;60146;52.498;13.462;2023-02-15T17:04:41;25.27;;;9.40;;
72235;SDS011;60146;52.498;13.462;2023-02-15T17:09:51;25.93;;;10.73;;
72235;SDS011;60146;52.498;13.462;2023-02-15T17:13:03;29.90;;;10.47;;
72235;SDS011;60146;52.498;13.462;2023-02-15T17:15:02;29.73;;;10.83;;